createdAt,value
2023-08-27T00:00:29.392Z,22.22
2023-08-27T00:03:00.585Z,22.20
2023-08-27T00:05:31.535Z,22.18
2023-08-27T00:08:02.839Z,22.13
2023-08-27T00:10:33.828Z,22.20
2023-08-27T00:13:04.670Z,22.20
2023-08-27T00:15:38.247Z,22.09
2023-08-27T00:18:09.887Z,22.03
2023-08-27T00:20:41.613Z,22.07
2023-08-27T00:23:13.213Z,22.08
2023-08-27T00:25:44.242Z,22.07
2023-08-27T00:28:17.054Z,22.11
2023-08-27T00:30:51.571Z,22.20
2023-08-27T00:33:22.526Z,22.21
2023-08-27T00:35:55.310Z,22.18
2023-08-27T00:38:26.405Z,22.20
2023-08-27T00:40:57.636Z,22.20
2023-08-27T00:43:28.787Z,22.21
2023-08-27T00:46:03.627Z,22.23
2023-08-27T00:48:34.530Z,22.21
2023-08-27T00:51:07.368Z,22.16
2023-08-27T00:53:38.940Z,22.14
2023-08-27T00:56:11.071Z,22.16
2023-08-27T00:58:41.868Z,22.17
2023-08-27T01:01:17.139Z,22.18
2023-08-27T01:03:50.765Z,22.16
2023-08-27T01:06:22.695Z,22.16
2023-08-27T01:09:00.342Z,22.14
2023-08-27T01:11:40.720Z,22.16
2023-08-27T01:14:14.971Z,22.11
2023-08-27T01:16:48.950Z,22.09
2023-08-27T01:19:21.568Z,22.12
2023-08-27T01:21:54.881Z,22.13
2023-08-27T01:24:25.673Z,22.03
2023-08-27T01:27:04.662Z,21.91
2023-08-27T01:29:42.171Z,21.87
2023-08-27T01:32:27.677Z,21.79
2023-08-27T01:35:00.197Z,21.82
2023-08-27T01:37:33.625Z,21.80
2023-08-27T01:40:09.679Z,21.78
2023-08-27T01:42:40.531Z,21.68
2023-08-27T01:45:16.535Z,21.66
2023-08-27T01:47:47.236Z,21.69
2023-08-27T01:50:17.627Z,21.77
2023-08-27T01:52:52.031Z,21.81
2023-08-27T01:55:22.681Z,21.75
2023-08-27T01:57:52.883Z,21.75
2023-08-27T02:00:24.339Z,21.72
2023-08-27T02:02:55.194Z,21.71
2023-08-27T02:05:25.622Z,21.66
2023-08-27T02:07:59.027Z,21.63
2023-08-27T02:10:29.717Z,21.64
2023-08-27T02:13:00.666Z,21.70
2023-08-27T02:15:31.460Z,21.67
2023-08-27T02:18:01.671Z,21.61
2023-08-27T02:20:32.456Z,21.64
2023-08-27T02:23:05.858Z,21.61
2023-08-27T02:25:36.484Z,21.59
2023-08-27T02:28:07.686Z,21.58
2023-08-27T02:30:38.359Z,21.58
2023-08-27T02:33:08.655Z,21.59
2023-08-27T02:35:39.329Z,21.54
2023-08-27T02:38:12.263Z,21.54
2023-08-27T02:40:43.661Z,21.61
2023-08-27T02:43:14.214Z,21.60
2023-08-27T02:45:46.683Z,21.59
2023-08-27T02:48:17.396Z,21.55
2023-08-27T02:50:47.801Z,21.57
2023-08-27T02:53:21.002Z,21.62
2023-08-27T02:55:52.644Z,21.58
2023-08-27T02:58:23.107Z,21.62
2023-08-27T03:00:53.668Z,21.56
2023-08-27T03:03:24.392Z,21.58
2023-08-27T03:05:54.771Z,21.56
2023-08-27T03:08:28.002Z,21.56
2023-08-27T03:10:58.539Z,21.56
2023-08-27T03:13:28.906Z,21.54
2023-08-27T03:15:59.731Z,21.55
2023-08-27T03:18:34.520Z,21.57
2023-08-27T03:21:05.318Z,21.65
2023-08-27T03:26:09.102Z,21.64
2023-08-27T03:28:39.342Z,21.65
2023-08-27T03:31:10.102Z,21.68
2023-08-27T03:33:41.105Z,21.69
2023-08-27T03:36:11.478Z,21.64
2023-08-27T03:38:44.880Z,21.68
2023-08-27T03:41:15.469Z,21.74
2023-08-27T03:43:45.734Z,21.75
2023-08-27T03:46:16.857Z,21.70
2023-08-27T03:48:47.089Z,21.71
2023-08-27T03:51:17.683Z,21.61
2023-08-27T03:53:51.448Z,21.61
2023-08-27T03:56:22.065Z,21.64
2023-08-27T03:58:52.464Z,21.58
2023-08-27T04:01:23.152Z,21.59
2023-08-27T04:03:54.691Z,21.59
2023-08-27T04:06:25.437Z,21.58
2023-08-27T04:08:58.792Z,21.55
2023-08-27T04:11:30.382Z,21.55
2023-08-27T04:14:01.703Z,21.50
2023-08-27T04:16:32.497Z,21.50
2023-08-27T04:19:03.799Z,21.51
2023-08-27T04:21:34.624Z,21.48
2023-08-27T04:24:08.501Z,21.50
2023-08-27T04:26:39.105Z,21.50
2023-08-27T04:29:10.625Z,21.50
2023-08-27T04:31:41.244Z,21.54
2023-08-27T04:34:11.458Z,21.48
2023-08-27T04:36:41.933Z,21.47
2023-08-27T04:39:15.133Z,21.44
2023-08-27T04:41:45.779Z,21.45
2023-08-27T04:44:18.474Z,21.55
2023-08-27T04:46:48.694Z,21.58
2023-08-27T04:49:19.202Z,21.64
2023-08-27T04:51:49.946Z,21.68
2023-08-27T04:54:24.908Z,21.68
2023-08-27T04:56:57.452Z,21.70
2023-08-27T04:59:31.155Z,21.69
2023-08-27T05:02:01.930Z,21.74
2023-08-27T05:04:32.849Z,21.69
2023-08-27T05:07:03.354Z,21.71
2023-08-27T05:09:36.636Z,21.74
2023-08-27T05:12:08.495Z,21.66
2023-08-27T05:14:39.148Z,21.68
2023-08-27T05:17:09.953Z,21.75
2023-08-27T05:19:41.228Z,21.76
2023-08-27T05:22:12.093Z,21.69
2023-08-27T05:24:44.925Z,21.53
2023-08-27T05:27:15.396Z,21.49
2023-08-27T05:29:45.894Z,21.47
2023-08-27T05:32:16.181Z,21.35
2023-08-27T05:34:46.632Z,21.32
2023-08-27T05:37:17.327Z,21.36
2023-08-27T05:39:50.776Z,21.32
2023-08-27T05:42:21.369Z,21.22
2023-08-27T05:44:53.467Z,21.23
2023-08-27T05:47:24.225Z,21.29
2023-08-27T05:49:54.446Z,21.25
2023-08-27T05:52:26.711Z,21.19
2023-08-27T05:55:02.160Z,21.03
2023-08-27T05:57:32.805Z,21.09
2023-08-27T06:00:04.386Z,21.10
2023-08-27T06:02:43.447Z,21.07
2023-08-27T06:05:14.328Z,21.06
2023-08-27T06:07:44.971Z,21.21
2023-08-27T06:10:18.223Z,21.22
2023-08-27T06:12:48.891Z,21.03
2023-08-27T06:15:19.227Z,20.85
2023-08-27T06:17:49.785Z,20.82
2023-08-27T06:20:20.660Z,20.88
2023-08-27T06:22:51.638Z,20.89
2023-08-27T06:25:25.328Z,21.01
2023-08-27T06:27:59.545Z,21.11
2023-08-27T06:30:31.144Z,21.24
2023-08-27T06:33:05.340Z,21.32
2023-08-27T06:35:38.584Z,21.38
2023-08-27T06:38:09.342Z,21.48
2023-08-27T06:40:43.332Z,21.54
2023-08-27T06:43:14.077Z,21.61
2023-08-27T06:45:49.063Z,21.63
2023-08-27T06:48:19.863Z,21.77
2023-08-27T06:50:50.406Z,21.88
2023-08-27T06:53:20.724Z,21.95
2023-08-27T06:55:54.987Z,22.06
2023-08-27T06:58:25.509Z,22.12
2023-08-27T07:00:56.334Z,22.17
2023-08-27T07:03:27.301Z,22.16
2023-08-27T07:05:57.962Z,22.19
2023-08-27T07:08:28.229Z,22.29
2023-08-27T07:11:01.425Z,22.38
2023-08-27T07:13:31.988Z,22.52
2023-08-27T07:16:03.608Z,22.63
2023-08-27T07:18:34.235Z,22.79
2023-08-27T07:21:04.833Z,22.94
2023-08-27T07:23:35.057Z,22.95
2023-08-27T07:26:08.236Z,23.00
2023-08-27T07:28:39.336Z,23.09
2023-08-27T07:31:09.889Z,23.05
2023-08-27T07:33:40.079Z,23.05
2023-08-27T07:36:10.890Z,23.02
2023-08-27T07:38:44.769Z,23.07
2023-08-27T07:41:18.475Z,23.15
2023-08-27T07:43:49.174Z,23.03
2023-08-27T07:46:20.347Z,22.97
2023-08-27T07:48:50.952Z,22.98
2023-08-27T07:51:21.142Z,23.02
2023-08-27T07:53:51.944Z,23.13
2023-08-27T07:56:25.287Z,23.33
2023-08-27T07:58:55.996Z,23.33
2023-08-27T08:01:27.416Z,23.41
2023-08-27T08:03:58.174Z,23.51
2023-08-27T08:06:29.517Z,23.56
2023-08-27T08:09:00.083Z,23.63
2023-08-27T08:11:32.862Z,23.52
2023-08-27T08:14:03.945Z,23.52
2023-08-27T08:16:34.522Z,23.36
2023-08-27T08:19:04.710Z,23.36
2023-08-27T08:21:35.235Z,23.37
2023-08-27T08:24:05.497Z,23.20
2023-08-27T08:26:38.654Z,23.12
2023-08-27T08:29:09.292Z,23.15
2023-08-27T08:31:39.506Z,23.03
2023-08-27T08:34:10.802Z,22.96
2023-08-27T08:36:41.386Z,23.09
2023-08-27T08:39:11.652Z,23.15
2023-08-27T08:41:48.030Z,23.33
2023-08-27T08:44:28.962Z,23.36
2023-08-27T08:47:01.796Z,23.46
2023-08-27T08:49:35.602Z,23.42
2023-08-27T08:52:09.452Z,23.35
2023-08-27T08:54:45.090Z,23.48
2023-08-27T08:57:19.845Z,23.67
2023-08-27T08:59:52.967Z,23.95
2023-08-27T09:02:23.721Z,24.36
2023-08-27T09:04:56.223Z,24.85
2023-08-27T09:07:27.550Z,25.16
2023-08-27T09:10:00.302Z,25.09
2023-08-27T09:12:36.529Z,24.84
2023-08-27T09:15:08.373Z,24.81
2023-08-27T09:17:39.129Z,24.94
2023-08-27T09:20:11.588Z,25.18
2023-08-27T09:22:42.922Z,25.26
2023-08-27T09:25:14.325Z,25.70
2023-08-27T09:27:49.225Z,26.18
2023-08-27T09:30:20.513Z,26.67
2023-08-27T09:32:51.320Z,26.60
2023-08-27T09:35:22.288Z,26.38
2023-08-27T09:37:52.903Z,26.31
2023-08-27T09:40:23.946Z,26.13
2023-08-27T09:43:09.184Z,25.83
2023-08-27T09:45:41.797Z,25.84
2023-08-27T09:48:12.720Z,26.08
2023-08-27T09:50:43.571Z,25.89
2023-08-27T09:53:16.758Z,25.46
2023-08-27T09:55:47.693Z,25.48
2023-08-27T09:58:21.216Z,25.40
2023-08-27T10:00:52.044Z,25.31
2023-08-27T10:03:26.803Z,25.00
2023-08-27T10:05:57.507Z,24.53
2023-08-27T10:08:28.299Z,24.39
2023-08-27T10:11:10.340Z,24.42
2023-08-27T10:13:47.157Z,24.33
2023-08-27T10:16:19.995Z,24.51
2023-08-27T10:18:51.763Z,24.60
2023-08-27T10:21:23.823Z,24.58
2023-08-27T10:23:57.642Z,24.62
2023-08-27T10:26:28.978Z,24.61
2023-08-27T10:29:04.753Z,24.63
2023-08-27T10:31:35.677Z,24.51
2023-08-27T10:34:09.000Z,24.62
2023-08-27T10:36:42.267Z,24.36
2023-08-27T10:39:13.973Z,24.36
2023-08-27T10:41:44.988Z,24.34
2023-08-27T10:44:23.352Z,24.13
2023-08-27T10:47:13.808Z,24.03
2023-08-27T10:49:45.749Z,23.90
2023-08-27T10:52:22.856Z,23.76
2023-08-27T10:55:03.771Z,23.52
2023-08-27T10:57:41.066Z,23.27
2023-08-27T11:00:17.868Z,23.13
2023-08-27T11:03:02.218Z,22.99
2023-08-27T11:05:33.654Z,22.82
2023-08-27T11:08:04.491Z,22.70
2023-08-27T11:10:36.159Z,22.59
2023-08-27T11:13:09.913Z,22.39
2023-08-27T11:15:45.081Z,22.17
2023-08-27T11:18:26.284Z,22.03
2023-08-27T11:20:57.284Z,22.10
2023-08-27T11:23:28.131Z,22.12
2023-08-27T11:25:59.869Z,22.11
2023-08-27T11:28:31.809Z,22.21
2023-08-27T11:31:06.809Z,22.34
2023-08-27T11:33:39.440Z,22.42
2023-08-27T11:36:10.250Z,22.43
2023-08-27T11:38:43.289Z,22.28
2023-08-27T11:41:14.108Z,22.37
2023-08-27T11:43:44.937Z,22.54
2023-08-27T11:46:27.562Z,22.69
2023-08-27T11:48:58.285Z,22.80
2023-08-27T11:51:29.527Z,22.81
2023-08-27T11:54:02.895Z,22.57
2023-08-27T11:56:33.586Z,22.63
2023-08-27T11:59:04.512Z,22.53
2023-08-27T12:01:38.615Z,22.37
2023-08-27T12:04:12.754Z,22.36
2023-08-27T12:06:58.100Z,22.51
2023-08-27T12:09:31.749Z,22.23
2023-08-27T12:12:07.522Z,22.05
2023-08-27T12:14:40.471Z,21.77
2023-08-27T12:17:13.957Z,21.65
2023-08-27T12:19:45.448Z,21.79
2023-08-27T12:22:19.908Z,22.21
2023-08-27T12:24:50.806Z,22.39
2023-08-27T12:27:24.696Z,22.35
2023-08-27T12:29:57.449Z,22.54
2023-08-27T12:32:35.687Z,22.46
2023-08-27T12:35:09.666Z,22.44
2023-08-27T12:37:42.084Z,22.40
2023-08-27T12:40:14.254Z,22.30
2023-08-27T12:42:44.959Z,22.17
2023-08-27T12:45:15.927Z,22.17
2023-08-27T12:47:49.517Z,22.16
2023-08-27T12:50:20.434Z,22.06
2023-08-27T12:52:51.692Z,21.83
2023-08-27T12:55:22.660Z,21.33
2023-08-27T12:57:53.615Z,21.07
2023-08-27T13:00:24.455Z,21.00
2023-08-27T13:02:58.254Z,21.05
2023-08-27T13:05:29.112Z,20.94
2023-08-27T13:08:04.069Z,20.82
2023-08-27T13:10:37.756Z,20.70
2023-08-27T13:13:08.508Z,20.85
2023-08-27T13:15:39.325Z,20.85
2023-08-27T13:18:12.748Z,20.90
2023-08-27T13:20:43.476Z,20.98
2023-08-27T13:23:19.030Z,20.96
2023-08-27T13:25:49.984Z,20.70
2023-08-27T13:28:20.785Z,20.58
2023-08-27T13:30:51.242Z,20.42
2023-08-27T13:33:24.752Z,20.32
2023-08-27T13:35:55.769Z,20.12
2023-08-27T13:38:26.779Z,20.01
2023-08-27T13:40:57.138Z,20.22
2023-08-27T13:43:28.139Z,20.40
2023-08-27T13:45:58.944Z,20.38
2023-08-27T13:48:32.386Z,20.41
2023-08-27T13:51:03.231Z,20.46
2023-08-27T13:53:34.604Z,20.47
2023-08-27T13:56:05.344Z,20.49
2023-08-27T13:58:37.329Z,20.41
2023-08-27T14:01:08.209Z,20.29
2023-08-27T14:03:41.654Z,20.43
2023-08-27T14:06:12.762Z,20.48
2023-08-27T14:08:45.750Z,20.49
2023-08-27T14:11:16.717Z,20.59
2023-08-27T14:13:48.221Z,20.53
2023-08-27T14:16:18.979Z,20.60
2023-08-27T14:18:52.353Z,20.58
2023-08-27T14:21:23.142Z,20.66
2023-08-27T14:23:55.478Z,20.67
2023-08-27T14:26:26.551Z,20.74
2023-08-27T14:28:57.294Z,20.65
2023-08-27T14:31:27.732Z,20.80
2023-08-27T14:34:06.718Z,20.89
2023-08-27T14:36:38.983Z,20.87
2023-08-27T14:39:09.816Z,20.85
2023-08-27T14:41:40.460Z,20.79
2023-08-27T14:44:11.070Z,20.64
2023-08-27T14:46:41.967Z,20.66
2023-08-27T14:49:15.521Z,20.56
2023-08-27T14:51:46.412Z,20.59
2023-08-27T14:54:17.117Z,20.78
2023-08-27T14:56:47.573Z,20.82
2023-08-27T14:59:40.926Z,20.79
2023-08-27T15:02:16.810Z,20.85
2023-08-27T15:04:50.298Z,20.93
2023-08-27T15:07:21.128Z,20.99
2023-08-27T15:09:52.131Z,20.94
2023-08-27T15:12:24.399Z,20.63
2023-08-27T15:14:55.330Z,20.58
2023-08-27T15:17:26.259Z,20.47
2023-08-27T15:20:02.858Z,20.46
2023-08-27T15:22:33.851Z,20.40
2023-08-27T15:25:05.756Z,20.44
2023-08-27T15:27:36.574Z,20.49
2023-08-27T15:30:08.735Z,20.46
2023-08-27T15:32:39.670Z,20.54
2023-08-27T15:35:17.399Z,20.51
2023-08-27T15:37:48.348Z,20.46
2023-08-27T15:40:20.971Z,20.50
2023-08-27T15:47:44.910Z,20.66
2023-08-27T15:51:19.291Z,20.80
2023-08-27T15:54:00.584Z,20.81
2023-08-27T15:56:31.525Z,20.66
2023-08-27T15:59:02.651Z,20.66
2023-08-27T16:01:33.515Z,20.67
2023-08-27T16:04:06.593Z,20.67
2023-08-27T16:06:43.441Z,20.79
2023-08-27T16:09:14.359Z,20.89
2023-08-27T16:11:45.445Z,20.93
2023-08-27T16:14:16.518Z,20.96
2023-08-27T16:16:44.724Z,21.00
2023-08-27T16:19:15.518Z,20.89
2023-08-27T16:21:49.700Z,20.78
2023-08-27T16:24:20.678Z,20.63
2023-08-27T16:26:51.526Z,20.58
2023-08-27T16:29:22.638Z,20.65
2023-08-27T16:32:11.141Z,20.50
2023-08-27T16:48:45.806Z,20.36
2023-08-27T16:51:17.256Z,20.43
2023-08-27T16:53:48.431Z,20.36
2023-08-27T16:56:19.678Z,20.35
2023-08-27T16:58:50.461Z,20.36
2023-08-27T17:01:21.086Z,20.29
2023-08-27T17:03:54.563Z,20.15
2023-08-27T17:06:28.450Z,20.09
2023-08-27T17:09:01.356Z,20.08
2023-08-27T17:11:32.049Z,20.08
2023-08-27T17:14:05.463Z,20.11
2023-08-27T17:16:41.162Z,20.09
2023-08-27T17:19:15.394Z,20.04
2023-08-27T17:21:46.365Z,20.03
2023-08-27T17:24:17.175Z,20.11
2023-08-27T17:26:47.673Z,20.00
2023-08-27T17:29:18.791Z,19.98
2023-08-27T17:31:49.794Z,19.92
2023-08-27T17:34:23.450Z,19.87
2023-08-27T17:36:54.745Z,19.89
2023-08-27T17:39:28.317Z,19.92
2023-08-27T17:41:59.432Z,19.98
2023-08-27T17:44:30.380Z,20.01
2023-08-27T17:47:01.285Z,20.06
2023-08-27T17:49:34.993Z,20.07
2023-08-27T17:52:06.078Z,19.97
2023-08-27T17:54:37.004Z,19.96
2023-08-27T17:57:08.104Z,19.99
2023-08-27T17:59:38.820Z,19.97
2023-08-27T18:02:09.525Z,19.93
2023-08-27T18:04:43.077Z,19.79
2023-08-27T18:07:14.337Z,19.83
2023-08-27T18:09:45.396Z,19.81
2023-08-27T18:12:16.224Z,19.76
2023-08-27T18:14:48.678Z,19.83
2023-08-27T18:17:19.564Z,19.82
2023-08-27T18:19:53.456Z,19.77
2023-08-27T18:22:24.409Z,19.78
2023-08-27T18:24:55.585Z,19.70
2023-08-27T18:27:26.715Z,19.62
2023-08-27T18:29:57.668Z,19.60
2023-08-27T18:32:28.740Z,19.60
2023-08-27T18:35:02.323Z,19.62
2023-08-27T18:37:33.345Z,19.55
2023-08-27T18:40:04.089Z,19.57
2023-08-27T18:42:35.373Z,19.61
2023-08-27T18:45:06.538Z,19.71
2023-08-27T18:47:37.308Z,19.75
2023-08-27T18:50:11.156Z,19.80
2023-08-27T18:52:42.086Z,19.80
2023-08-27T18:55:12.561Z,19.76
2023-08-27T18:57:43.728Z,19.82
2023-08-27T19:00:17.924Z,19.82
2023-08-27T19:02:50.402Z,19.77
2023-08-27T19:05:24.535Z,19.73
2023-08-27T19:07:56.741Z,19.71
2023-08-27T19:10:28.361Z,19.70
2023-08-27T19:12:59.313Z,19.66
2023-08-27T19:15:29.838Z,19.59
2023-08-27T19:18:01.854Z,19.59
2023-08-27T19:20:36.185Z,19.58
2023-08-27T19:23:07.693Z,19.51
2023-08-27T19:25:38.684Z,19.37
2023-08-27T19:28:09.985Z,19.34
2023-08-27T19:30:42.317Z,19.30
2023-08-27T19:33:13.637Z,19.22
2023-08-27T19:35:46.967Z,19.25
2023-08-27T19:38:18.089Z,19.34
2023-08-27T19:40:48.796Z,19.33
2023-08-27T19:43:19.240Z,19.24
2023-08-27T19:45:50.498Z,19.18
2023-08-27T19:48:21.339Z,19.08
2023-08-27T19:50:54.753Z,19.00
2023-08-27T19:53:26.025Z,19.06
2023-08-27T19:55:57.453Z,19.09
2023-08-27T19:58:28.605Z,19.19
2023-08-27T20:01:03.206Z,19.21
2023-08-27T20:03:35.259Z,19.21
2023-08-27T20:06:10.369Z,19.13
2023-08-27T20:08:41.515Z,19.11
2023-08-27T20:11:12.374Z,19.13
2023-08-27T20:13:43.240Z,19.13
2023-08-27T20:16:14.185Z,19.13
2023-08-27T20:18:45.119Z,19.19
2023-08-27T20:21:18.593Z,19.22
2023-08-27T20:23:49.257Z,19.20
2023-08-27T20:26:20.376Z,19.13
2023-08-27T20:28:51.267Z,19.12
2023-08-27T20:31:22.027Z,19.12
2023-08-27T20:33:52.548Z,19.12
2023-08-27T20:36:26.087Z,19.15
2023-08-27T20:38:56.908Z,19.06
2023-08-27T20:41:27.770Z,18.99
2023-08-27T20:43:59.439Z,19.00
2023-08-27T20:46:30.169Z,18.95
2023-08-27T20:49:00.915Z,18.87
2023-08-27T20:51:34.369Z,18.88
2023-08-27T20:54:13.326Z,18.90
2023-08-27T20:56:44.665Z,18.89
2023-08-27T20:59:15.859Z,18.91
2023-08-27T21:01:46.932Z,18.91
2023-08-27T21:04:17.801Z,18.95
2023-08-27T21:06:50.995Z,18.99
2023-08-27T21:09:22.063Z,19.09
2023-08-27T21:11:53.145Z,19.03
2023-08-27T21:14:23.984Z,19.04
2023-08-27T21:16:54.713Z,19.04
2023-08-27T21:19:25.761Z,19.02
2023-08-27T21:21:59.583Z,18.99
2023-08-27T21:24:30.512Z,18.97
2023-08-27T21:27:01.253Z,19.01
2023-08-27T21:29:32.195Z,19.14
2023-08-27T21:32:03.018Z,19.19
2023-08-27T21:34:33.855Z,19.30
2023-08-27T21:37:06.976Z,19.27
2023-08-27T21:39:37.813Z,19.19
2023-08-27T21:42:09.486Z,19.11
2023-08-27T21:44:43.075Z,19.14
2023-08-27T21:47:13.865Z,19.12
2023-08-27T21:49:44.434Z,19.17
2023-08-27T21:52:18.257Z,19.22
2023-08-27T21:54:49.433Z,19.25
2023-08-27T21:57:20.336Z,19.20
2023-08-27T21:59:52.596Z,19.22
2023-08-27T22:02:26.337Z,19.02
2023-08-27T22:04:57.461Z,18.97
2023-08-27T22:07:31.111Z,18.95
2023-08-27T22:10:02.374Z,18.92
2023-08-27T22:12:33.685Z,18.97
2023-08-27T22:15:08.115Z,19.04
2023-08-27T22:17:39.382Z,19.06
2023-08-27T22:20:12.161Z,19.18
2023-08-27T22:22:45.441Z,19.15
2023-08-27T22:25:16.333Z,19.08
2023-08-27T22:27:46.994Z,19.06
2023-08-27T22:30:18.827Z,19.06
2023-08-27T22:32:49.831Z,19.05
2023-08-27T22:35:21.533Z,19.05
2023-08-27T22:37:54.980Z,18.93
2023-08-27T22:40:27.553Z,18.84
2023-08-27T22:42:58.562Z,18.77
2023-08-27T22:45:33.277Z,18.71
2023-08-27T22:48:04.209Z,18.55
2023-08-27T22:50:35.893Z,18.57
2023-08-27T22:53:09.315Z,18.48
2023-08-27T22:55:44.139Z,18.54
2023-08-27T22:58:14.951Z,18.54
2023-08-27T23:00:45.472Z,18.52
2023-08-27T23:03:20.963Z,18.63
2023-08-27T23:05:51.717Z,18.62
2023-08-27T23:08:25.181Z,18.58
2023-08-27T23:10:56.859Z,18.53
2023-08-27T23:13:31.177Z,18.39
2023-08-27T23:16:08.530Z,18.35
2023-08-27T23:18:40.629Z,18.43
2023-08-27T23:21:14.957Z,18.49
2023-08-27T23:23:51.699Z,18.41
2023-08-27T23:26:22.743Z,18.45
2023-08-27T23:28:55.363Z,18.45
2023-08-27T23:31:26.324Z,18.52
2023-08-27T23:33:56.936Z,18.54
2023-08-27T23:36:30.612Z,18.48
2023-08-27T23:39:05.354Z,18.48
2023-08-27T23:41:35.998Z,18.46
2023-08-27T23:44:09.172Z,18.48
2023-08-27T23:46:42.196Z,18.35
2023-08-27T23:49:20.969Z,18.28
2023-08-27T23:51:53.034Z,18.24
2023-08-27T23:54:28.860Z,18.32
2023-08-27T23:56:59.790Z,18.33
2023-08-27T23:59:30.323Z,18.41
